Time;durP1;ratioP1;P1;durP2;ratioP2;P2;SDS_P1;SDS_P2;PMS_P1;PMS_P2;Temp;Humidity;BMP_temperature;BMP_pressure;BME280_temperature;BME280_humidity;BME280_pressure;Samples;Min_cycle;Max_cycle;Signal;HPM_P1;HPM_P2
2022/12/05 00:03:33;;;;;;;12.07;2.83;;;;;;;23.55;35.29;102217.13;21065392;28;20066;-59
2022/12/05 00:13:34;;;;;;;10.95;2.70;;;;;;;23.40;35.21;102242.13;21063195;28;20352;-60
2022/12/05 00:23:35;;;;;;;9.93;2.30;;;;;;;23.57;35.15;102287.53;21072631;28;20491;-59
2022/12/05 00:33:37;;;;;;;9.98;2.38;;;;;;;23.51;34.92;102249.50;21072071;28;20044;-60
2022/12/05 00:43:39;;;;;;;10.25;2.78;;;;;;;23.59;34.56;102271.31;21050324;28;20089;-59
2022/12/05 00:53:42;;;;;;;8.32;2.50;;;;;;;23.57;34.04;102254.00;21042847;28;20568;-59
2022/12/05 01:03:45;;;;;;;5.80;2.00;;;;;;;23.59;33.72;102233.06;21059628;28;20036;-60
2022/12/05 01:13:46;;;;;;;5.88;2.30;;;;;;;23.61;34.11;102221.63;21071964;28;20040;-59
2022/12/05 01:23:53;;;;;;;2.95;1.77;;;;;;;23.63;34.01;102218.53;21054538;28;20052;-59
2022/12/05 01:33:57;;;;;;;6.67;2.00;;;;;;;23.63;34.16;102197.03;21069643;28;20544;-59
2022/12/05 01:44:05;;;;;;;6.18;1.75;;;;;;;23.62;34.87;102175.78;21071520;28;20051;-59
2022/12/05 01:54:08;;;;;;;5.95;1.70;;;;;;;23.63;34.54;102185.84;21072869;28;20040;-59
2022/12/05 02:04:10;;;;;;;4.60;1.80;;;;;;;23.62;34.75;102177.75;21045526;28;20109;-61
2022/12/05 02:14:48;;;;;;;4.07;1.70;;;;;;;23.55;34.38;102217.13;21065167;28;20040;-60
2022/12/05 02:25:22;;;;;;;12.65;2.83;;;;;;;23.56;34.16;102235.56;21059658;28;20036;-60
2022/12/05 02:35:29;;;;;;;4.57;2.65;;;;;;;23.57;33.49;102254.84;21073909;28;20044;-60
2022/12/05 02:45:35;;;;;;;3.13;1.80;;;;;;;23.51;33.37;102246.69;21073082;28;20423;-60
2022/12/05 02:55:39;;;;;;;5.55;2.05;;;;;;;23.50;33.20;102247.78;21074397;28;20043;-59
2022/12/05 03:05:59;;;;;;;6.68;2.10;;;;;;;23.46;33.16;102246.63;21072792;28;20045;-60
2022/12/05 03:16:06;;;;;;;2.78;1.35;;;;;;;23.40;33.26;102214.19;21050473;28;20085;-59
2022/12/05 03:26:25;;;;;;;7.53;2.00;;;;;;;23.21;33.76;102178.28;21013721;28;20047;-58
2022/12/05 03:36:41;;;;;;;7.40;2.20;;;;;;;23.28;33.29;102211.59;21060266;28;20394;-59
2022/12/05 03:46:54;;;;;;;3.83;2.05;;;;;;;23.25;34.13;102199.00;21076947;28;20101;-60
2022/12/05 03:57:08;;;;;;;5.25;2.38;;;;;;;23.18;34.35;102195.56;21067241;28;20036;-58
2022/12/05 04:07:10;;;;;;;4.82;1.90;;;;;;;23.26;34.54;102214.63;21083531;28;20039;-58
2022/12/05 04:17:25;;;;;;;6.32;1.80;;;;;;;23.24;34.51;102204.84;21084233;28;20040;-58
2022/12/05 04:27:41;;;;;;;4.20;1.63;;;;;;;23.24;34.29;102199.25;21083421;28;20097;-58
2022/12/05 04:37:47;;;;;;;3.15;1.88;;;;;;;23.21;34.69;102192.25;21082242;28;20032;-60
2022/12/05 04:47:57;;;;;;;2.58;1.90;;;;;;;23.23;34.57;102192.84;21080466;28;20044;-59
2022/12/05 04:58:15;;;;;;;3.90;2.10;;;;;;;23.25;35.24;102190.59;21077830;28;20036;-59
2022/12/05 05:08:26;;;;;;;2.70;2.17;;;;;;;23.27;35.04;102185.59;21080073;28;20383;-60
2022/12/05 05:18:27;;;;;;;5.32;2.03;;;;;;;23.28;34.79;102178.06;21064217;28;20105;-60
2022/12/05 05:28:34;;;;;;;3.03;1.83;;;;;;;23.24;34.73;102172.16;21059391;28;20044;-59
2022/12/05 05:38:41;;;;;;;3.30;2.00;;;;;;;23.23;35.15;102172.41;21077400;28;20051;-59
2022/12/05 05:48:42;;;;;;;5.82;2.13;;;;;;;23.19;34.80;102174.09;21067316;28;20074;-59
2022/12/05 05:58:43;;;;;;;2.95;2.05;;;;;;;23.16;35.03;102169.88;21075171;28;20048;-59
2022/12/05 06:08:48;;;;;;;4.32;2.33;;;;;;;23.12;34.86;102163.13;21075858;28;20031;-59
2022/12/05 06:18:50;;;;;;;3.28;2.10;;;;;;;23.09;35.07;102169.22;21075367;28;20476;-59
2022/12/05 06:28:53;;;;;;;2.47;2.15;;;;;;;23.04;34.86;102177.56;21083747;28;20040;-58
2022/12/05 06:38:59;;;;;;;3.15;2.20;;;;;;;23.00;34.65;102165.25;21090032;28;20028;-59
2022/12/05 06:49:00;;;;;;;3.60;2.20;;;;;;;22.96;35.15;102194.84;21080970;28;20074;-60
2022/12/05 06:59:02;;;;;;;3.83;2.08;;;;;;;22.91;34.88;102201.19;21046377;28;20476;-60
2022/12/05 07:09:07;;;;;;;3.60;2.50;;;;;;;22.87;34.79;102204.75;21005709;28;20040;-60
2022/12/05 07:19:09;;;;;;;4.00;2.10;;;;;;;22.81;34.71;102218.63;21066836;28;20048;-60
2022/12/05 07:29:11;;;;;;;3.30;2.30;;;;;;;22.75;34.67;102213.28;21018201;28;20078;-57
2022/12/05 07:39:15;;;;;;;6.63;2.20;;;;;;;22.74;35.00;102222.75;21046126;28;20044;-57
2022/12/05 07:49:19;;;;;;;4.47;2.53;;;;;;;22.71;34.95;102217.69;21082558;28;20369;-58
2022/12/05 07:59:23;;;;;;;3.70;2.17;;;;;;;22.66;34.84;102206.47;21081339;28;20040;-58
2022/12/05 08:09:27;;;;;;;4.05;1.95;;;;;;;22.63;34.81;102221.78;21083860;28;20044;-59
2022/12/05 08:19:28;;;;;;;3.70;2.47;;;;;;;22.60;34.90;102216.75;21078659;28;20040;-58
2022/12/05 08:29:30;;;;;;;3.13;2.10;;;;;;;22.57;35.00;102211.69;21076183;28;20536;-58
2022/12/05 08:39:31;;;;;;;2.72;1.80;;;;;;;22.53;34.71;102210.50;21078712;28;20090;-58
2022/12/05 08:49:32;;;;;;;3.22;2.20;;;;;;;22.52;34.60;102225.56;21074288;28;20564;-58
2022/12/05 08:59:40;;;;;;;2.88;2.33;;;;;;;22.49;34.53;102214.91;21076631;28;20449;-58
2022/12/05 09:09:41;;;;;;;3.15;2.10;;;;;;;22.45;34.71;102220.22;21077016;28;20035;-58
2022/12/05 09:19:43;;;;;;;3.25;2.13;;;;;;;22.44;34.48;102218.50;21075522;28;20132;-58
2022/12/05 09:29:45;;;;;;;3.08;2.38;;;;;;;22.41;34.23;102218.19;21078204;28;20039;-58
2022/12/05 09:39:46;;;;;;;3.20;2.25;;;;;;;22.25;34.53;102206.84;21077840;28;20036;-59
2022/12/05 09:49:59;;;;;;;3.83;2.60;;;;;;;22.36;34.28;102246.00;21076678;28;20429;-58
2022/12/05 10:00:03;;;;;;;2.55;1.92;;;;;;;22.35;34.28;102258.25;21074507;28;20040;-59
2022/12/05 10:10:26;;;;;;;3.22;2.53;;;;;;;22.27;34.49;102279.94;21075482;28;20040;-60
2022/12/05 10:20:34;;;;;;;2.50;2.10;;;;;;;22.15;34.22;102276.41;21066558;28;20111;-58
2022/12/05 10:30:38;;;;;;;2.67;1.90;;;;;;;22.24;34.09;102305.53;21074608;28;20105;-58
2022/12/05 10:40:43;;;;;;;3.20;2.35;;;;;;;22.15;34.18;102309.03;21074251;28;20052;-58
2022/12/05 10:50:48;;;;;;;2.92;2.20;;;;;;;22.06;33.98;102328.09;21073722;28;20093;-58
2022/12/05 11:00:55;;;;;;;3.78;2.75;;;;;;;22.14;33.84;102352.78;21074098;28;20040;-58
2022/12/05 11:11:03;;;;;;;2.97;2.42;;;;;;;22.10;34.10;102362.72;21076926;28;20375;-58
2022/12/05 11:21:13;;;;;;;2.83;2.30;;;;;;;21.93;33.93;102346.00;21083100;28;20078;-58
2022/12/05 11:31:24;;;;;;;3.35;2.78;;;;;;;22.03;34.01;102378.78;21087310;28;20051;-58
2022/12/05 11:42:02;;;;;;;3.38;2.50;;;;;;;21.94;33.94;102372.78;21087439;28;20040;-58
2022/12/05 11:52:25;;;;;;;3.97;2.60;;;;;;;21.91;33.88;102380.81;21077054;28;20445;-58
2022/12/05 12:03:26;;;;;;;2.88;2.53;;;;;;;21.85;34.18;102384.59;21065361;28;20380;-58
2022/12/05 12:13:59;;;;;;;5.00;3.40;;;;;;;21.83;33.67;102391.28;21013536;28;20055;-58
2022/12/05 12:24:25;;;;;;;3.63;3.30;;;;;;;21.77;34.03;102403.44;21081863;28;20048;-58
2022/12/05 12:34:51;;;;;;;15.77;4.18;;;;;;;21.77;33.92;102409.00;21073215;28;20040;-59
2022/12/05 12:45:05;;;;;;;10.93;8.25;;;;;;;21.77;33.41;102413.75;21028506;28;20048;-60
2022/12/05 12:55:24;;;;;;;9.07;5.63;;;;;;;21.77;33.49;102431.31;21053594;28;20051;-61
2022/12/05 13:05:49;;;;;;;8.43;5.85;;;;;;;21.69;33.84;102440.06;21074140;28;20044;-60
2022/12/05 13:15:59;;;;;;;14.85;6.78;;;;;;;21.70;33.32;102469.59;21066708;28;20383;-60
2022/12/05 13:26:10;;;;;;;10.48;6.60;;;;;;;21.67;32.88;102478.47;20992830;28;20125;-59
2022/12/05 13:46:42;;;;;;;9.20;6.53;;;;;;;21.64;32.54;102517.97;20993294;28;20029;-59
2022/12/05 13:56:53;;;;;;;9.80;6.28;;;;;;;21.63;32.71;102507.09;20991488;28;20065;-59
2022/12/05 14:06:56;;;;;;;12.02;6.00;;;;;;;21.57;32.54;102525.63;20992696;28;20048;-59
2022/12/05 14:17:04;;;;;;;6.18;5.53;;;;;;;21.54;32.62;102520.56;20991159;28;20094;-59
2022/12/05 14:27:20;;;;;;;7.53;5.13;;;;;;;21.50;32.55;102527.72;20991304;28;20090;-59
2022/12/05 14:37:42;;;;;;;6.47;5.60;;;;;;;21.43;32.77;102536.19;20992072;28;20500;-60
2022/12/05 14:47:54;;;;;;;6.85;4.88;;;;;;;21.47;32.38;102547.69;20997394;28;20391;-59
2022/12/05 14:57:55;;;;;;;6.20;4.90;;;;;;;21.40;32.42;102553.41;21007489;28;20020;-60
2022/12/05 15:07:59;;;;;;;6.43;5.15;;;;;;;21.40;32.46;102521.94;21005399;28;20045;-59
2022/12/05 15:18:09;;;;;;;5.30;4.75;;;;;;;21.37;32.61;102516.84;21004910;28;20098;-60
2022/12/05 15:28:19;;;;;;;7.30;4.60;;;;;;;21.34;32.22;102514.53;21003821;28;20074;-58
2022/12/05 15:38:31;;;;;;;7.45;4.50;;;;;;;21.31;32.61;102532.59;21003181;28;20097;-58
2022/12/05 15:48:33;;;;;;;5.78;4.25;;;;;;;21.28;32.60;102539.47;21002238;28;20036;-58
2022/12/05 15:58:45;;;;;;;7.13;4.40;;;;;;;21.28;32.50;102538.63;20997091;28;20040;-59
2022/12/05 16:08:48;;;;;;;5.22;4.32;;;;;;;21.29;32.50;102501.31;21001195;28;20044;-61
2022/12/05 16:19:20;;;;;;;7.20;4.63;;;;;;;21.21;32.46;102494.22;21000616;28;20383;-58
2022/12/05 16:29:30;;;;;;;5.15;4.03;;;;;;;21.18;32.15;102483.56;20993678;28;20044;-59
2022/12/05 16:39:31;;;;;;;4.07;3.70;;;;;;;21.24;32.49;102471.44;20998845;28;20044;-59
2022/12/05 16:49:34;;;;;;;5.05;3.60;;;;;;;21.12;32.47;102434.47;20997057;28;20495;-59
2022/12/05 16:59:38;;;;;;;4.07;3.50;;;;;;;21.11;32.37;102409.63;20996389;28;20032;-59
2022/12/05 17:09:39;;;;;;;3.95;3.22;;;;;;;21.20;32.51;102420.13;20995713;28;20044;-59
2022/12/05 17:19:40;;;;;;;3.80;3.17;;;;;;;21.07;32.48;102398.13;20995944;28;20542;-59
2022/12/05 17:29:42;;;;;;;3.42;3.13;;;;;;;21.17;32.65;102401.16;20994576;28;20128;-60
2022/12/05 17:39:43;;;;;;;6.20;3.75;;;;;;;21.15;32.53;102369.91;20994125;28;20063;-60
2022/12/05 17:49:44;;;;;;;5.53;3.47;;;;;;;21.14;32.74;102378.53;20993584;28;20040;-60
2022/12/05 17:59:45;;;;;;;11.02;3.38;;;;;;;21.12;32.97;102355.66;20993502;28;20020;-59
2022/12/05 18:09:47;;;;;;;6.05;3.10;;;;;;;21.11;32.30;102354.81;21020864;28;20561;-58
2022/12/05 18:19:48;;;;;;;7.15;2.88;;;;;;;21.09;32.27;102359.78;20997293;28;20062;-60
2022/12/05 18:29:50;;;;;;;20.05;4.53;;;;;;;21.10;32.78;102342.00;21018050;28;20048;-59
2022/12/05 18:39:51;;;;;;;30.40;3.95;;;;;;;21.07;32.71;102306.28;21016934;28;20033;-59
2022/12/05 18:49:53;;;;;;;52.60;5.88;;;;;;;21.08;33.21;102319.13;21025618;28;20479;-61
2022/12/05 18:59:57;;;;;;;47.38;7.15;;;;;;;21.01;33.48;102304.50;21017124;28;20052;-58
2022/12/05 19:09:58;;;;;;;34.17;5.45;;;;;;;21.09;33.15;102318.03;21016468;28;20121;-59
2022/12/05 19:20:00;;;;;;;306.48;26.73;;;;;;;21.10;33.88;102324.44;21016566;28;20037;-58
2022/12/05 19:30:01;;;;;;;463.83;47.63;;;;;;;21.08;35.10;102321.91;21014589;28;20052;-59
2022/12/05 19:40:02;;;;;;;382.48;40.20;;;;;;;21.13;35.20;102313.66;21036471;28;20089;-60
2022/12/05 19:50:05;;;;;;;328.35;37.72;;;;;;;21.15;34.61;102311.47;21085324;28;20039;-58
2022/12/05 20:00:07;;;;;;;330.33;36.67;;;;;;;21.16;35.19;102312.31;21086960;28;20040;-59
2022/12/05 20:10:09;;;;;;;380.73;45.13;;;;;;;21.19;35.36;102325.72;21089930;28;20048;-58
2022/12/05 20:20:10;;;;;;;318.65;38.25;;;;;;;21.20;35.07;102353.31;21057585;28;20838;-58
2022/12/05 20:30:12;;;;;;;270.50;34.90;;;;;;;21.20;35.36;102330.19;21003014;28;20045;-58
2022/12/05 20:40:13;;;;;;;242.73;34.35;;;;;;;21.23;35.37;102322.19;20998995;28;20036;-58
2022/12/05 20:50:14;;;;;;;228.05;35.58;;;;;;;21.24;35.90;102315.53;20996137;28;20126;-58
2022/12/05 21:00:20;;;;;;;178.05;26.55;;;;;;;21.22;35.57;102323.31;20996810;28;20048;-58
2022/12/05 21:10:21;;;;;;;231.70;34.50;;;;;;;21.22;35.21;102339.16;20996242;28;20488;-59
2022/12/05 21:20:22;;;;;;;260.02;31.55;;;;;;;21.17;35.02;102331.56;20995665;28;20098;-58
2022/12/05 21:30:24;;;;;;;698.85;93.90;;;;;;;21.12;35.21;102333.38;20994392;28;20152;-58
2022/12/05 21:40:25;;;;;;;528.13;75.65;;;;;;;21.17;36.47;102359.41;21003615;28;20032;-57
2022/12/05 21:50:26;;;;;;;487.05;70.43;;;;;;;21.18;36.04;102374.16;21077420;28;20032;-58
2022/12/05 22:00:31;;;;;;;465.08;57.83;;;;;;;21.15;36.15;102349.59;21076720;28;20032;-58
2022/12/05 22:10:35;;;;;;;385.75;53.05;;;;;;;21.12;36.11;102353.72;21076014;28;20044;-58
2022/12/05 22:20:36;;;;;;;341.48;45.38;;;;;;;21.13;35.84;102380.47;21075931;28;20556;-58
2022/12/05 22:30:38;;;;;;;251.65;34.03;;;;;;;21.10;35.52;102392.09;20997778;28;20044;-58
2022/12/05 22:40:39;;;;;;;227.98;33.33;;;;;;;21.08;35.12;102419.34;21004562;28;20046;-58
2022/12/05 22:50:48;;;;;;;90.25;12.93;;;;;;;21.05;33.85;102428.16;21074579;28;20049;-59
2022/12/05 23:00:49;;;;;;;;;;;;;;;21.06;34.38;102418.72;21063726;28;20040;-59
2022/12/05 23:10:50;;;;;;;139.38;25.00;;;;;;;21.02;35.36;102401.66;21044046;28;20424;-59
2022/12/05 23:20:51;;;;;;;143.90;24.90;;;;;;;21.04;35.71;102407.00;21076195;28;20245;-59
2022/12/05 23:30:53;;;;;;;170.93;28.40;;;;;;;21.12;36.75;102428.88;21065706;28;20040;-59
2022/12/05 23:41:05;;;;;;;98.18;19.42;;;;;;;21.10;36.22;102422.72;21057960;28;20449;-58
2022/12/05 23:51:16;;;;;;;74.22;13.90;;;;;;;21.19;36.00;102435.16;21075419;28;20048;-59
